ウィニペグ の空港の天気 - METARとTAF

ウィニペグ国際空港 ( CYWG / YWG ) - カナダ マニトバ州ウィニペグ
飛行場実況気象(Metar)
観測時間07/18 22:00 CDT (07/19 03:00 UTC)
風向・風速南西 4m/s
視程10km以上
天気現象
少しの雲 雲底高度 3050m
気温22℃
湿度69%
気圧999.2hPa
METARCYWG 190300Z 23008KT 15SM FEW100 22/16 A2950 RMK AC2 CB TOPS NW-NE OCNL LTGIC NW-NE SLP992 DENSITY ALT 2300FT
過去の天気等 Google飛行場航空写真 Wunderground天気予報

過去48時間のMETAR

飛行場予報(TAF)
発表時間: 7/18 18:38 CDT (7/18 23:38 UTC)
予報対象時間: 18日19時 CDT ~ 19日19時 CDT
風向・風速南西 5m/s
視程10km以上
全天の4割程度の雲 雲底高度 1220m
18日19時 CDT ~ 18日21時 CDT に一時的に
視程10km以上
天気現象周辺で雷
全天の8割程度の積乱雲 雲底高度 1220m
18日19時 CDT から 確率 30% で
視程4830m
天気現象雷雨
全天の8割程度の積乱雲 雲底高度 910m
18日21時 CDT から
風向・風速西南西 4m/s
視程10km以上
少しの雲 雲底高度 1520m
19日1時 CDT から 確率 30% で
視程3220m
天気現象もや
19日4時 CDT から
風向・風速南西 4m/s
視程10km以上
なし
19日4時 CDT から 確率 30% で
視程1610m
天気現象もや
19日7時 CDT ~ 19日8時 CDT に徐々に
風向・風速西 8m/s
19日18時 CDT から
風向・風速西 6m/s
視程10km以上
全天の4割程度の雲 雲底高度 2130m
TAF CYWG 182338Z 1900/1924 23010KT P6SM SCT040
TEMPO 1900/1902 P6SM VCTS BKN040CB
PROB30 1900/1902 3SM TSRA BKN030CB
FM190200 25008KT P6SM FEW050
PROB30 1906/1909 2SM BR
FM190900 23008KT P6SM SKC
PROB30 1909/1912 1SM BR
BECMG 1912/1913 27015KT
FM192300 27012KT P6SM SCT070 RMK NXT FCST BY 190600Z